createdAt,value
2018-06-23T00:01:47.645Z,4.92
2018-06-23T00:04:16.075Z,4.05
2018-06-23T00:06:44.703Z,4.37
2018-06-23T00:09:13.058Z,4.10
2018-06-23T00:11:41.376Z,4.35
2018-06-23T00:14:09.695Z,4.00
2018-06-23T00:16:38.013Z,3.47
2018-06-23T00:19:06.350Z,4.50
2018-06-23T00:21:34.697Z,3.42
2018-06-23T00:24:03.148Z,4.17
2018-06-23T00:26:31.551Z,5.12
2018-06-23T00:29:01.020Z,4.15
2018-06-23T00:31:29.422Z,4.22
2018-06-23T00:33:57.540Z,4.87
2018-06-23T00:36:26.158Z,4.90
2018-06-23T00:38:54.608Z,4.17
2018-06-23T00:41:23.168Z,5.28
2018-06-23T00:43:51.641Z,5.30
2018-06-23T00:46:20.536Z,4.60
2018-06-23T00:48:49.895Z,3.83
2018-06-23T00:51:19.262Z,4.28
2018-06-23T00:53:47.631Z,5.47
2018-06-23T00:56:15.968Z,6.30
2018-06-23T00:58:55.689Z,3.87
2018-06-23T01:01:24.156Z,4.03
2018-06-23T01:03:53.330Z,3.85
2018-06-23T01:06:21.773Z,4.35
2018-06-23T01:08:50.075Z,4.03
2018-06-23T01:11:18.397Z,4.58
2018-06-23T01:13:46.780Z,4.58
2018-06-23T01:16:15.133Z,5.08
2018-06-23T01:18:43.515Z,4.80
2018-06-23T01:21:11.839Z,5.65
2018-06-23T01:23:40.138Z,3.92
2018-06-23T01:26:08.455Z,4.60
2018-06-23T01:28:36.853Z,4.55
2018-06-23T01:31:05.146Z,5.03
2018-06-23T01:33:33.433Z,4.90
2018-06-23T01:36:01.460Z,4.30
2018-06-23T01:38:29.874Z,6.85
2018-06-23T01:40:58.331Z,4.95
2018-06-23T01:43:26.707Z,4.17
2018-06-23T01:45:55.034Z,5.10
2018-06-23T01:48:23.383Z,5.53
2018-06-23T01:50:51.713Z,4.60
2018-06-23T01:53:20.040Z,4.45
2018-06-23T01:55:48.446Z,4.65
2018-06-23T01:58:16.784Z,4.45
2018-06-23T02:00:45.124Z,4.47
2018-06-23T02:03:13.465Z,4.35
2018-06-23T02:05:41.837Z,4.33
2018-06-23T02:08:10.164Z,4.55
2018-06-23T02:10:38.521Z,4.45
2018-06-23T02:13:07.015Z,4.28
2018-06-23T02:15:40.720Z,4.75
2018-06-23T02:18:14.439Z,4.40
2018-06-23T02:20:48.170Z,4.15
2018-06-23T02:25:24.356Z,4.53
2018-06-23T02:27:58.016Z,4.50
2018-06-23T02:30:30.224Z,5.22
2018-06-23T02:33:02.776Z,2.92
2018-06-23T02:35:31.089Z,4.65
2018-06-23T02:37:59.450Z,4.62
2018-06-23T02:40:27.748Z,4.62
2018-06-23T02:42:56.076Z,4.70
2018-06-23T02:45:24.383Z,3.80
2018-06-23T02:47:52.663Z,4.35
2018-06-23T02:50:21.002Z,4.45
2018-06-23T02:52:49.408Z,3.62
2018-06-23T02:55:17.730Z,4.58
2018-06-23T02:57:46.097Z,5.83
2018-06-23T03:00:14.558Z,4.28
2018-06-23T03:02:43.090Z,4.58
2018-06-23T03:05:11.570Z,4.33
2018-06-23T03:07:39.957Z,4.58
2018-06-23T03:10:08.281Z,4.15
2018-06-23T03:12:36.622Z,4.72
2018-06-23T03:15:05.023Z,4.05
2018-06-23T03:17:33.340Z,4.50
2018-06-23T03:20:01.652Z,5.47
2018-06-23T03:22:29.959Z,5.15
2018-06-23T03:24:58.295Z,4.62
2018-06-23T03:27:26.627Z,4.03
2018-06-23T03:29:54.906Z,4.33
2018-06-23T03:32:23.242Z,5.37
2018-06-23T03:34:51.696Z,4.65
2018-06-23T03:37:20.071Z,3.45
2018-06-23T03:39:48.527Z,4.65
2018-06-23T03:42:16.850Z,4.75
2018-06-23T03:44:45.149Z,3.33
2018-06-23T03:47:13.461Z,4.25
2018-06-23T03:49:41.759Z,3.62
2018-06-23T03:52:10.114Z,3.47
2018-06-23T03:54:38.475Z,4.25
2018-06-23T03:57:06.867Z,3.98
2018-06-23T03:59:35.334Z,4.05
2018-06-23T04:02:03.624Z,3.80
2018-06-23T04:04:31.998Z,4.70
2018-06-23T04:07:00.332Z,3.98
2018-06-23T04:09:28.811Z,5.08
2018-06-23T04:11:57.131Z,3.58
2018-06-23T04:14:25.572Z,4.60
2018-06-23T04:16:54.582Z,4.40
2018-06-23T04:19:23.239Z,3.85
2018-06-23T04:21:51.665Z,4.70
2018-06-23T04:24:19.718Z,4.25
2018-06-23T04:26:48.040Z,4.42
2018-06-23T04:29:16.455Z,4.12
2018-06-23T04:31:44.868Z,5.35
2018-06-23T04:34:13.163Z,3.62
2018-06-23T04:36:41.527Z,4.67
2018-06-23T04:39:09.871Z,4.10
2018-06-23T04:41:38.654Z,4.03
2018-06-23T04:44:07.013Z,4.53
2018-06-23T04:46:35.430Z,4.10
2018-06-23T04:49:03.828Z,3.90
2018-06-23T04:51:32.068Z,3.90
2018-06-23T04:54:00.548Z,3.80
2018-06-23T04:56:28.999Z,4.35
2018-06-23T04:58:57.338Z,3.70
2018-06-23T05:01:25.699Z,3.90
2018-06-23T05:03:54.014Z,5.37
2018-06-23T05:06:22.351Z,3.95
2018-06-23T05:08:50.687Z,4.45
2018-06-23T05:11:19.030Z,3.52
2018-06-23T05:13:47.336Z,4.25
2018-06-23T05:16:15.652Z,3.77
2018-06-23T05:18:43.945Z,4.28
2018-06-23T05:21:12.296Z,4.08
2018-06-23T05:23:40.633Z,3.92
2018-06-23T05:26:08.995Z,4.30
2018-06-23T05:28:37.404Z,4.42
2018-06-23T05:31:05.882Z,3.42
2018-06-23T05:33:34.221Z,4.17
2018-06-23T05:36:02.512Z,4.05
2018-06-23T05:38:30.825Z,4.00
2018-06-23T05:40:59.297Z,4.20
2018-06-23T05:43:27.584Z,5.55
2018-06-23T05:45:55.882Z,3.92
2018-06-23T05:48:24.222Z,3.65
2018-06-23T05:50:52.575Z,4.10
2018-06-23T05:53:20.883Z,4.08
2018-06-23T05:55:49.170Z,5.17
2018-06-23T05:58:17.492Z,4.55
2018-06-23T06:00:45.842Z,4.80
2018-06-23T06:03:14.251Z,3.80
2018-06-23T06:05:42.681Z,5.08
2018-06-23T06:08:11.118Z,3.92
2018-06-23T06:10:39.398Z,3.72
2018-06-23T06:13:07.703Z,3.83
2018-06-23T06:15:36.004Z,5.12
2018-06-23T06:18:04.343Z,3.72
2018-06-23T06:20:32.696Z,4.58
2018-06-23T06:23:01.008Z,3.98
2018-06-23T06:25:29.374Z,3.33
2018-06-23T06:27:57.764Z,4.22
2018-06-23T06:30:26.100Z,4.10
2018-06-23T06:32:54.476Z,3.95
2018-06-23T06:35:22.853Z,3.33
2018-06-23T06:37:51.158Z,4.17
2018-06-23T06:40:19.516Z,4.00
2018-06-23T06:42:47.986Z,4.05
2018-06-23T06:45:16.346Z,4.08
2018-06-23T06:47:44.724Z,5.03
2018-06-23T06:50:13.025Z,3.22
2018-06-23T06:52:41.368Z,4.05
2018-06-23T06:55:09.696Z,3.83
2018-06-23T06:57:38.033Z,3.37
2018-06-23T07:00:06.645Z,3.77
2018-06-23T07:02:34.953Z,3.27
2018-06-23T07:05:03.316Z,3.77
2018-06-23T07:07:31.620Z,4.05
2018-06-23T07:09:59.915Z,2.87
2018-06-23T07:12:28.336Z,3.22
2018-06-23T07:14:57.008Z,4.10
2018-06-23T07:17:25.398Z,3.62
2018-06-23T07:19:53.841Z,3.95
2018-06-23T07:22:22.377Z,3.10
2018-06-23T07:24:50.741Z,2.65
2018-06-23T07:27:19.127Z,3.45
2018-06-23T07:29:47.485Z,2.60
2018-06-23T07:32:15.799Z,3.37
2018-06-23T07:34:44.209Z,4.25
2018-06-23T07:37:12.458Z,2.85
2018-06-23T07:39:40.774Z,3.25
2018-06-23T07:42:09.156Z,3.20
2018-06-23T07:44:37.424Z,3.45
2018-06-23T07:47:05.761Z,2.65
2018-06-23T07:49:34.157Z,3.45
2018-06-23T07:52:02.570Z,3.75
2018-06-23T07:54:31.011Z,2.60
2018-06-23T07:56:59.692Z,3.22
2018-06-23T07:59:28.416Z,2.85
2018-06-23T08:01:56.733Z,3.62
2018-06-23T08:04:25.083Z,3.20
2018-06-23T08:06:53.828Z,2.62
2018-06-23T08:09:22.139Z,3.87
2018-06-23T08:11:50.507Z,3.15
2018-06-23T08:14:18.877Z,3.00
2018-06-23T08:16:47.185Z,3.50
2018-06-23T08:19:15.513Z,3.55
2018-06-23T08:21:43.820Z,2.90
2018-06-23T08:24:12.132Z,2.83
2018-06-23T08:26:40.871Z,2.27
2018-06-23T08:29:09.013Z,2.87
2018-06-23T08:31:37.874Z,3.35
2018-06-23T08:34:06.435Z,3.47
2018-06-23T08:36:34.874Z,2.87
2018-06-23T08:39:03.444Z,2.75
2018-06-23T08:41:31.860Z,3.50
2018-06-23T08:44:00.165Z,2.50
2018-06-23T08:46:28.596Z,3.00
2018-06-23T08:48:56.939Z,2.10
2018-06-23T08:51:26.272Z,3.20
2018-06-23T08:53:54.607Z,2.60
2018-06-23T08:56:22.973Z,2.60
2018-06-23T08:58:51.295Z,2.72
2018-06-23T09:01:19.595Z,2.80
2018-06-23T09:03:47.945Z,3.60
2018-06-23T09:06:16.281Z,2.45
2018-06-23T09:08:44.646Z,2.92
2018-06-23T09:11:13.000Z,3.52
2018-06-23T09:13:41.542Z,2.72
2018-06-23T09:16:09.948Z,2.62
2018-06-23T09:18:38.463Z,2.87
2018-06-23T09:21:06.876Z,3.08
2018-06-23T09:23:34.926Z,2.80
2018-06-23T09:26:03.233Z,2.60
2018-06-23T09:28:31.793Z,2.60
2018-06-23T09:31:00.173Z,2.60
2018-06-23T09:33:28.495Z,2.98
2018-06-23T09:35:56.900Z,3.00
2018-06-23T09:38:25.207Z,3.33
2018-06-23T09:40:53.522Z,2.47
2018-06-23T09:43:21.808Z,2.35
2018-06-23T09:45:50.203Z,2.25
2018-06-23T09:48:18.595Z,2.85
2018-06-23T09:50:47.099Z,2.80
2018-06-23T09:53:15.453Z,3.27
2018-06-23T09:55:43.807Z,2.92
2018-06-23T09:58:12.135Z,2.75
2018-06-23T10:00:40.415Z,2.05
2018-06-23T10:03:08.802Z,2.37
2018-06-23T10:05:37.116Z,2.30
2018-06-23T10:08:05.541Z,3.37
2018-06-23T10:10:33.858Z,3.20
2018-06-23T10:13:02.257Z,2.47
2018-06-23T10:15:30.673Z,2.42
2018-06-23T10:17:58.902Z,2.15
2018-06-23T10:20:27.332Z,2.47
2018-06-23T10:22:55.767Z,2.70
2018-06-23T10:25:24.221Z,2.52
2018-06-23T10:27:52.767Z,2.52
2018-06-23T10:30:21.199Z,2.83
2018-06-23T10:32:49.548Z,2.40
2018-06-23T10:35:18.153Z,2.08
2018-06-23T10:37:46.477Z,2.62
2018-06-23T10:40:14.783Z,2.83
2018-06-23T10:42:43.145Z,2.12
2018-06-23T10:45:11.560Z,1.95
2018-06-23T10:47:39.890Z,2.17
2018-06-23T10:50:08.212Z,2.22
2018-06-23T10:52:36.532Z,2.77
2018-06-23T10:55:04.959Z,2.47
2018-06-23T10:57:33.287Z,2.20
2018-06-23T11:00:01.637Z,2.42
2018-06-23T11:02:30.047Z,2.15
2018-06-23T11:04:58.624Z,2.05
2018-06-23T11:07:27.063Z,1.98
2018-06-23T11:09:55.364Z,1.77
2018-06-23T11:12:23.670Z,2.17
2018-06-23T11:14:52.024Z,2.92
2018-06-23T11:17:20.424Z,2.02
2018-06-23T11:19:48.784Z,2.22
2018-06-23T11:22:17.141Z,2.08
2018-06-23T11:24:45.437Z,2.05
2018-06-23T11:27:13.783Z,2.35
2018-06-23T11:29:42.142Z,2.10
2018-06-23T11:32:10.681Z,1.67
2018-06-23T11:34:39.018Z,2.10
2018-06-23T11:37:07.398Z,1.80
2018-06-23T11:39:35.865Z,2.08
2018-06-23T11:42:04.294Z,1.90
2018-06-23T11:44:32.651Z,2.05
2018-06-23T11:47:01.063Z,1.37
2018-06-23T11:49:29.475Z,1.75
2018-06-23T11:51:57.775Z,2.15
2018-06-23T11:54:26.049Z,1.87
2018-06-23T11:56:54.380Z,1.80
2018-06-23T11:59:22.713Z,2.22
2018-06-23T12:01:51.071Z,1.72
2018-06-23T12:04:21.321Z,1.45
2018-06-23T12:06:49.701Z,2.27
2018-06-23T12:09:18.215Z,3.12
2018-06-23T12:11:46.594Z,2.05
2018-06-23T12:14:15.002Z,2.70
2018-06-23T12:16:43.813Z,1.85
2018-06-23T12:19:12.603Z,2.17
2018-06-23T12:21:42.129Z,2.12
2018-06-23T12:24:16.893Z,1.67
2018-06-23T12:26:45.460Z,1.62
2018-06-23T12:29:14.466Z,1.80
2018-06-23T12:31:42.880Z,2.25
2018-06-23T12:34:11.315Z,1.67
2018-06-23T12:36:39.704Z,1.87
2018-06-23T12:39:09.837Z,1.27
2018-06-23T12:41:38.560Z,2.05
2018-06-23T12:44:07.109Z,1.55
2018-06-23T12:46:35.615Z,1.40
2018-06-23T12:49:03.986Z,1.87
2018-06-23T12:51:32.450Z,1.87
2018-06-23T12:54:00.755Z,2.17
2018-06-23T12:56:29.151Z,1.85
2018-06-23T12:58:57.628Z,1.80
2018-06-23T13:01:26.181Z,1.60
2018-06-23T13:03:54.704Z,1.45
2018-06-23T13:06:23.196Z,1.32
2018-06-23T13:08:51.688Z,1.65
2018-06-23T13:11:20.183Z,1.40
2018-06-23T13:13:48.796Z,1.77
2018-06-23T13:16:17.184Z,1.52
2018-06-23T13:18:45.549Z,1.80
2018-06-23T13:21:13.969Z,2.08
2018-06-23T13:23:42.365Z,2.35
2018-06-23T13:26:11.089Z,1.67
2018-06-23T13:28:39.488Z,2.42
2018-06-23T13:31:11.116Z,1.35
2018-06-23T13:33:39.448Z,1.57
2018-06-23T13:36:07.829Z,1.42
2018-06-23T13:38:36.129Z,1.55
2018-06-23T13:41:05.997Z,1.30
2018-06-23T13:43:34.902Z,1.40
2018-06-23T13:46:03.265Z,1.77
2018-06-23T13:48:31.608Z,0.95
2018-06-23T13:51:00.117Z,1.25
2018-06-23T13:53:28.531Z,1.70
2018-06-23T13:55:57.221Z,1.30
2018-06-23T13:58:25.660Z,1.80
2018-06-23T14:00:54.303Z,1.10
2018-06-23T14:03:22.889Z,1.25
2018-06-23T14:05:51.243Z,1.60
2018-06-23T14:08:19.541Z,1.67
2018-06-23T14:10:47.903Z,1.25
2018-06-23T14:13:16.337Z,1.52
2018-06-23T14:15:44.671Z,1.12
2018-06-23T14:18:13.045Z,1.85
2018-06-23T14:20:41.320Z,1.40
2018-06-23T14:23:09.646Z,1.47
2018-06-23T14:25:38.092Z,1.95
2018-06-23T14:28:06.450Z,1.70
2018-06-23T14:30:35.236Z,1.57
2018-06-23T14:33:03.736Z,1.52
2018-06-23T14:35:32.152Z,1.35
2018-06-23T14:38:00.500Z,1.17
2018-06-23T14:40:28.860Z,1.10
2018-06-23T14:42:57.239Z,1.52
2018-06-23T14:45:25.640Z,1.20
2018-06-23T14:47:53.974Z,1.37
2018-06-23T14:50:22.375Z,1.67
2018-06-23T14:52:50.717Z,1.32
2018-06-23T14:55:19.032Z,1.42
2018-06-23T14:57:47.347Z,1.80
2018-06-23T15:00:15.762Z,1.47
2018-06-23T15:02:44.064Z,1.30
2018-06-23T15:05:12.444Z,1.57
2018-06-23T15:07:40.750Z,1.92
2018-06-23T15:10:20.492Z,1.80
2018-06-23T15:13:00.230Z,1.87
2018-06-23T15:15:28.581Z,1.45
2018-06-23T15:17:56.924Z,1.42
2018-06-23T15:20:25.253Z,2.37
2018-06-23T15:22:53.379Z,1.80
2018-06-23T15:25:22.590Z,2.05
2018-06-23T15:27:50.896Z,1.45
2018-06-23T15:30:19.228Z,2.12
2018-06-23T15:32:47.639Z,1.50
2018-06-23T15:35:16.094Z,1.67
2018-06-23T15:37:44.707Z,1.62
2018-06-23T15:40:13.355Z,1.47
2018-06-23T15:42:41.874Z,1.67
2018-06-23T15:45:10.212Z,1.30
2018-06-23T15:47:38.594Z,1.35
2018-06-23T15:50:06.973Z,1.57
2018-06-23T15:52:35.385Z,1.72
2018-06-23T15:55:03.702Z,1.17
2018-06-23T15:57:32.152Z,1.25
2018-06-23T16:00:00.421Z,1.52
2018-06-23T16:02:28.762Z,1.40
2018-06-23T16:04:57.102Z,1.30
2018-06-23T16:07:25.402Z,1.32
2018-06-23T16:09:53.752Z,1.20
2018-06-23T16:12:28.754Z,1.60
2018-06-23T16:14:57.192Z,1.40
2018-06-23T16:17:25.522Z,1.27
2018-06-23T16:19:53.944Z,1.30
2018-06-23T16:22:22.440Z,1.57
2018-06-23T16:24:50.986Z,1.20
2018-06-23T16:27:19.913Z,1.67
2018-06-23T16:29:48.304Z,1.25
2018-06-23T16:32:16.589Z,1.60
2018-06-23T16:34:45.147Z,1.35
2018-06-23T16:37:13.484Z,1.60
2018-06-23T16:39:41.830Z,1.70
2018-06-23T16:42:10.162Z,1.25
2018-06-23T16:44:38.449Z,1.30
2018-06-23T16:47:06.909Z,1.55
2018-06-23T16:49:35.163Z,1.22
2018-06-23T16:52:04.398Z,1.40
2018-06-23T16:54:32.738Z,1.70
2018-06-23T16:57:01.029Z,2.05
2018-06-23T16:59:29.431Z,1.37
2018-06-23T17:01:57.873Z,1.80
2018-06-23T17:04:26.274Z,1.47
2018-06-23T17:06:54.608Z,1.60
2018-06-23T17:09:22.892Z,1.92
2018-06-23T17:11:51.329Z,1.30
2018-06-23T17:14:19.672Z,1.55
2018-06-23T17:16:47.979Z,2.35
2018-06-23T17:19:16.382Z,1.70
2018-06-23T17:21:44.824Z,1.50
2018-06-23T17:24:12.858Z,1.65
2018-06-23T17:26:41.179Z,1.27
2018-06-23T17:29:09.521Z,1.82
2018-06-23T17:31:37.890Z,2.33
2018-06-23T17:34:06.253Z,1.80
2018-06-23T17:36:35.092Z,1.30
2018-06-23T17:39:04.068Z,1.75
2018-06-23T17:41:32.814Z,1.70
2018-06-23T17:44:01.380Z,1.55
2018-06-23T17:46:29.835Z,1.75
2018-06-23T17:48:58.300Z,2.15
2018-06-23T17:51:26.624Z,1.72
2018-06-23T17:53:54.885Z,1.72
2018-06-23T17:56:23.298Z,1.47
2018-06-23T17:58:51.623Z,1.60
2018-06-23T18:01:19.952Z,1.30
2018-06-23T18:03:48.249Z,1.85
2018-06-23T18:06:16.624Z,1.60
2018-06-23T18:08:44.901Z,1.70
2018-06-23T18:11:13.386Z,1.90
2018-06-23T18:13:41.617Z,1.55
2018-06-23T18:16:10.987Z,2.20
2018-06-23T18:18:39.516Z,1.25
2018-06-23T18:21:07.903Z,1.30
2018-06-23T18:23:36.417Z,1.50
2018-06-23T18:26:04.853Z,1.52
2018-06-23T18:28:33.136Z,1.50
2018-06-23T18:31:01.480Z,1.50
2018-06-23T18:33:29.817Z,1.55
2018-06-23T18:35:58.108Z,1.62
2018-06-23T18:38:26.431Z,1.62
2018-06-23T18:40:54.834Z,1.92
2018-06-23T18:43:23.403Z,1.60
2018-06-23T18:45:51.776Z,1.60
2018-06-23T18:48:20.103Z,1.37
2018-06-23T18:50:48.544Z,1.50
2018-06-23T18:53:16.939Z,1.17
2018-06-23T18:55:45.334Z,2.08
2018-06-23T18:58:13.781Z,1.75
2018-06-23T19:00:43.205Z,1.47
2018-06-23T19:03:11.518Z,1.95
2018-06-23T19:05:39.896Z,1.50
2018-06-23T19:08:08.241Z,1.92
2018-06-23T19:10:36.537Z,1.37
2018-06-23T19:13:04.914Z,1.90
2018-06-23T19:15:33.250Z,1.80
2018-06-23T19:18:01.542Z,1.90
2018-06-23T19:20:29.848Z,1.70
2018-06-23T19:22:58.201Z,1.40
2018-06-23T19:25:26.891Z,1.15
2018-06-23T19:27:55.264Z,1.57
2018-06-23T19:30:23.840Z,1.70
2018-06-23T19:32:52.242Z,1.37
2018-06-23T19:35:20.688Z,1.55
2018-06-23T19:37:49.353Z,1.57
2018-06-23T19:40:17.720Z,1.82
2018-06-23T19:42:46.026Z,1.50
2018-06-23T19:45:14.391Z,1.90
2018-06-23T19:47:42.721Z,1.25
2018-06-23T19:50:11.101Z,2.45
2018-06-23T19:52:39.403Z,1.92
2018-06-23T19:55:07.751Z,2.45
2018-06-23T19:57:36.143Z,1.60
2018-06-23T20:00:05.112Z,2.20
2018-06-23T20:02:33.495Z,1.77
2018-06-23T20:05:01.841Z,1.50
2018-06-23T20:07:30.333Z,2.10
2018-06-23T20:09:58.670Z,1.60
2018-06-23T20:12:27.318Z,2.20
2018-06-23T20:14:55.755Z,2.17
2018-06-23T20:17:24.211Z,1.82
2018-06-23T20:19:52.497Z,1.87
2018-06-23T20:22:20.920Z,1.70
2018-06-23T20:24:49.263Z,2.05
2018-06-23T20:27:17.885Z,1.80
2018-06-23T20:29:46.221Z,2.00
2018-06-23T20:32:14.513Z,2.10
2018-06-23T20:34:42.845Z,1.92
2018-06-23T20:37:11.272Z,1.90
2018-06-23T20:39:39.699Z,2.05
2018-06-23T20:42:08.081Z,2.12
2018-06-23T20:44:36.440Z,1.75
2018-06-23T20:47:04.784Z,2.15
2018-06-23T20:49:33.399Z,1.80
2018-06-23T20:52:02.097Z,2.35
2018-06-23T20:54:30.423Z,1.80
2018-06-23T20:56:58.748Z,1.65
2018-06-23T20:59:27.064Z,1.90
2018-06-23T21:01:55.341Z,2.10
2018-06-23T21:04:23.868Z,2.12
2018-06-23T21:06:52.202Z,2.37
2018-06-23T21:09:20.508Z,2.22
2018-06-23T21:11:48.840Z,3.25
2018-06-23T21:14:17.157Z,2.45
2018-06-23T21:16:45.485Z,1.90
2018-06-23T21:19:13.816Z,2.15
2018-06-23T21:21:42.355Z,2.20
2018-06-23T21:24:10.644Z,2.05
2018-06-23T21:26:39.043Z,2.77
2018-06-23T21:29:07.442Z,1.98
2018-06-23T21:31:35.767Z,2.00
2018-06-23T21:34:04.098Z,2.47
2018-06-23T21:36:32.419Z,2.05
2018-06-23T21:39:00.721Z,2.75
2018-06-23T21:41:29.003Z,2.92
2018-06-23T21:44:04.063Z,2.35
2018-06-23T21:46:33.004Z,2.62
2018-06-23T21:49:01.622Z,2.20
2018-06-23T21:51:29.984Z,2.05
2018-06-23T21:53:58.318Z,2.50
2018-06-23T21:56:26.634Z,2.12
2018-06-23T21:58:54.996Z,2.52
2018-06-23T22:01:23.297Z,2.40
2018-06-23T22:03:51.676Z,2.12
2018-06-23T22:06:20.131Z,2.27
2018-06-23T22:08:49.383Z,2.67
2018-06-23T22:11:17.748Z,2.50
2018-06-23T22:13:47.128Z,2.00
2018-06-23T22:16:15.625Z,2.42
2018-06-23T22:18:44.725Z,2.52
2018-06-23T22:21:13.248Z,2.08
2018-06-23T22:23:41.570Z,2.33
2018-06-23T22:26:10.064Z,2.47
2018-06-23T22:28:38.430Z,2.60
2018-06-23T22:31:06.881Z,3.00
2018-06-23T22:33:35.234Z,2.33
2018-06-23T22:36:03.606Z,1.92
2018-06-23T22:38:32.012Z,2.45
2018-06-23T22:41:00.308Z,2.50
2018-06-23T22:43:28.617Z,2.17
2018-06-23T22:45:56.978Z,2.95
2018-06-23T22:48:25.337Z,2.80
2018-06-23T22:50:53.699Z,2.30
2018-06-23T22:53:22.156Z,2.47
2018-06-23T22:55:51.250Z,2.72
2018-06-23T22:58:19.603Z,2.80
2018-06-23T23:00:47.939Z,2.72
2018-06-23T23:03:16.284Z,2.47
2018-06-23T23:05:44.731Z,2.75
2018-06-23T23:08:13.060Z,2.72
2018-06-23T23:10:41.399Z,2.75
2018-06-23T23:13:09.718Z,2.30
2018-06-23T23:15:38.046Z,2.30
2018-06-23T23:18:06.360Z,2.60
2018-06-23T23:20:34.701Z,2.92
2018-06-23T23:23:03.033Z,2.70
2018-06-23T23:25:31.345Z,3.55
2018-06-23T23:27:59.753Z,2.60
2018-06-23T23:30:28.230Z,3.08
2018-06-23T23:32:56.697Z,3.25
2018-06-23T23:35:24.991Z,3.30
2018-06-23T23:37:53.333Z,3.62
2018-06-23T23:40:24.557Z,3.12
2018-06-23T23:42:52.996Z,3.20
2018-06-23T23:45:21.252Z,3.25
2018-06-23T23:47:50.623Z,3.75
2018-06-23T23:50:18.932Z,3.37
2018-06-23T23:52:47.238Z,3.52
2018-06-23T23:55:15.538Z,3.58
2018-06-23T23:57:43.875Z,3.55
